Time;durP1;ratioP1;P1;durP2;ratioP2;P2;SDS_P1;SDS_P2;PMS_P1;PMS_P2;Temp;Humidity;BMP_temperature;BMP_pressure;BME280_temperature;BME280_humidity;BME280_pressure;Samples;Min_cycle;Max_cycle;Signal;HPM_P1;HPM_P2
2022/04/28 00:00:11;;;;;;;10.97;7.67;;;;;;;8.04;54.01;102179.59;689941;28;1762;-83
2022/04/28 00:00:33;;;;;;;10.35;7.20;;;;;;;8.04;54.49;102187.41;693212;28;1765;-83
2022/04/28 00:00:55;;;;;;;11.52;7.40;;;;;;;7.99;54.70;102181.88;695893;28;1919;-83
2022/04/28 00:01:15;;;;;;;11.40;7.70;;;;;;;8.01;54.08;102192.38;690393;28;957;-83
2022/04/28 00:01:36;;;;;;;13.15;8.27;;;;;;;7.93;54.49;102182.41;693315;28;1230;-83
2022/04/28 00:01:57;;;;;;;12.90;8.53;;;;;;;7.95;54.44;102190.31;691488;28;1091;-82
2022/04/28 00:02:17;;;;;;;13.15;8.60;;;;;;;7.95;54.50;102190.31;687691;28;1134;-83
2022/04/28 00:02:38;;;;;;;11.18;7.97;;;;;;;7.94;54.28;102194.59;687940;28;882;-83
2022/04/28 00:03:00;;;;;;;11.95;7.80;;;;;;;7.95;54.34;102188.63;692566;28;1279;-83
2022/04/28 00:03:20;;;;;;;13.07;8.15;;;;;;;7.86;54.86;102180.22;690474;28;1342;-83
2022/04/28 00:03:41;;;;;;;11.93;7.97;;;;;;;7.85;54.37;102181.03;693253;28;1260;-83
2022/04/28 00:04:01;;;;;;;12.85;8.27;;;;;;;7.89;54.59;102180.44;692981;28;1193;-83
2022/04/28 00:04:23;;;;;;;11.90;7.57;;;;;;;7.97;54.56;102190.41;690511;28;1385;-82
2022/04/28 00:04:43;;;;;;;12.43;7.80;;;;;;;7.93;54.37;102182.41;690527;28;1264;-83
2022/04/28 00:05:06;;;;;;;12.50;7.85;;;;;;;7.88;54.60;102183.84;690214;28;1186;-83
2022/04/28 00:05:26;;;;;;;12.85;8.60;;;;;;;7.85;54.46;102178.44;693174;28;823;-83
2022/04/28 00:05:47;;;;;;;12.70;8.40;;;;;;;7.88;54.60;102181.25;693120;28;1525;-83
2022/04/28 00:06:07;;;;;;;12.17;8.40;;;;;;;7.88;54.71;102183.84;687637;28;1294;-83
2022/04/28 00:06:28;;;;;;;12.88;8.68;;;;;;;7.88;54.62;102194.25;690563;28;804;-83
2022/04/28 00:06:48;;;;;;;13.60;9.00;;;;;;;7.91;54.67;102190.91;690556;28;1468;-83
2022/04/28 00:07:09;;;;;;;14.00;9.00;;;;;;;7.84;54.33;102181.84;687998;28;1821;-83
2022/04/28 00:07:30;;;;;;;13.52;8.65;;;;;;;7.92;54.41;102191.03;688772;28;1296;-83
2022/04/28 00:07:52;;;;;;;14.30;8.32;;;;;;;7.83;54.90;102180.06;693124;28;1231;-83
2022/04/28 00:08:13;;;;;;;12.57;7.80;;;;;;;7.92;54.35;102196.22;690492;28;1371;-83
2022/04/28 00:08:33;;;;;;;10.43;7.18;;;;;;;7.84;54.56;102184.44;690557;28;844;-83
2022/04/28 00:08:54;;;;;;;9.90;7.40;;;;;;;7.79;54.93;102180.66;687380;28;1640;-83
2022/04/28 00:09:15;;;;;;;12.82;7.38;;;;;;;7.82;54.85;102186.06;692155;28;1296;-83
2022/04/28 00:09:50;;;;;;;14.73;8.00;;;;;;;7.75;54.67;102182.16;689975;28;1186;-83
2022/04/28 00:10:11;;;;;;;12.73;8.70;;;;;;;7.83;54.58;102195.66;687569;28;1617;-83
2022/04/28 00:10:32;;;;;;;14.05;8.80;;;;;;;7.83;54.79;102193.06;682525;28;1298;-83
2022/04/28 00:11:02;;;;;;;14.25;8.85;;;;;;;7.77;55.21;102192.66;686058;28;1105;-83
2022/04/28 00:11:24;;;;;;;14.57;8.70;;;;;;;7.74;54.81;102182.09;687844;28;839;-83
2022/04/28 00:11:45;;;;;;;13.07;8.32;;;;;;;7.74;54.91;102185.56;690271;28;1647;-83
2022/04/28 00:12:06;;;;;;;11.30;8.25;;;;;;;7.76;54.81;102188.28;690402;28;1271;-82
2022/04/28 00:12:27;;;;;;;10.73;7.80;;;;;;;7.87;54.71;102197.63;690264;28;1248;-83
2022/04/28 00:12:48;;;;;;;10.25;7.68;;;;;;;7.90;54.90;102196.91;690931;28;1107;-83
2022/04/28 00:13:12;;;;;;;10.97;7.20;;;;;;;7.74;55.17;102179.50;693249;28;1090;-82
2022/04/28 00:13:36;;;;;;;11.93;7.60;;;;;;;7.78;55.04;102191.84;687715;28;1135;-83
2022/04/28 00:13:58;;;;;;;13.55;7.78;;;;;;;7.84;55.03;102196.56;689032;28;1115;-82
2022/04/28 00:14:20;;;;;;;14.98;8.00;;;;;;;7.78;55.22;102191.84;684571;28;1251;-83
2022/04/28 00:14:42;;;;;;;13.90;8.20;;;;;;;7.75;54.89;102191.69;690650;28;804;-83
2022/04/28 00:15:03;;;;;;;11.50;7.90;;;;;;;7.79;54.66;102202.38;692900;28;1585;-83
2022/04/28 00:15:24;;;;;;;14.93;7.97;;;;;;;7.78;55.14;102197.06;693115;28;1736;-83
2022/04/28 00:15:45;;;;;;;15.75;8.40;;;;;;;7.71;54.82;102187.06;693213;28;1296;-83
2022/04/28 00:16:05;;;;;;;16.55;8.55;;;;;;;7.70;54.80;102187.88;689580;28;2056;-83
2022/04/28 00:16:27;;;;;;;12.45;8.13;;;;;;;7.71;54.98;102194.88;690458;28;1137;-83
2022/04/28 00:16:48;;;;;;;13.88;8.13;;;;;;;7.68;54.97;102188.69;684793;28;1710;-83
2022/04/28 00:17:09;;;;;;;13.17;8.37;;;;;;;7.64;55.15;102181.53;685104;28;1048;-83
2022/04/28 00:17:30;;;;;;;14.38;8.60;;;;;;;7.66;55.04;102187.69;690478;28;1069;-83
2022/04/28 00:17:50;;;;;;;12.90;8.55;;;;;;;7.61;54.82;102178.72;688374;28;1183;-83
2022/04/28 00:18:11;;;;;;;12.60;8.53;;;;;;;7.65;55.21;102188.50;693185;28;1193;-83
2022/04/28 00:18:31;;;;;;;12.00;8.47;;;;;;;7.63;55.43;102184.91;687627;28;1273;-82
2022/04/28 00:18:52;;;;;;;12.93;8.55;;;;;;;7.66;55.07;102192.91;688415;28;1417;-83
2022/04/28 00:19:13;;;;;;;12.77;8.53;;;;;;;7.72;55.43;102197.56;690492;28;1488;-82
2022/04/28 00:19:33;;;;;;;12.63;8.43;;;;;;;7.66;55.15;102189.38;695508;28;1285;-82
2022/04/28 00:19:54;;;;;;;11.80;8.30;;;;;;;7.65;55.61;102182.41;689650;28;1492;-83
2022/04/28 00:20:15;;;;;;;11.25;8.25;;;;;;;7.66;55.36;102192.00;693226;28;1169;-83
2022/04/28 00:20:36;;;;;;;11.60;8.43;;;;;;;7.63;55.18;102187.50;696263;28;1230;-83
2022/04/28 00:20:56;;;;;;;11.82;8.20;;;;;;;7.63;55.20;102182.28;695834;28;1963;-82
2022/04/28 00:21:17;;;;;;;12.27;8.00;;;;;;;7.68;55.46;102191.28;695941;28;981;-83
2022/04/28 00:21:37;;;;;;;12.35;7.70;;;;;;;7.67;55.43;102191.19;693322;28;1120;-83
2022/04/28 00:21:58;;;;;;;11.80;7.80;;;;;;;7.65;55.42;102179.81;693513;28;1329;-83
2022/04/28 00:22:18;;;;;;;12.47;8.30;;;;;;;7.64;55.17;102191.91;687669;28;1869;-83
2022/04/28 00:22:39;;;;;;;12.13;8.37;;;;;;;7.67;55.27;102193.78;690308;28;1217;-83
2022/04/28 00:23:00;;;;;;;14.83;8.60;;;;;;;7.69;55.50;102194.81;689796;28;1159;-83
2022/04/28 00:23:20;;;;;;;14.02;8.48;;;;;;;7.64;55.36;102191.00;690406;28;1323;-83
2022/04/28 00:23:41;;;;;;;14.68;8.68;;;;;;;7.62;55.61;102184.81;690430;28;1198;-83
2022/04/28 00:24:01;;;;;;;13.97;8.50;;;;;;;7.56;55.49;102174.94;687757;28;1074;-83
2022/04/28 00:24:22;;;;;;;16.63;8.70;;;;;;;7.62;55.47;102183.09;687853;28;843;-83
2022/04/28 00:24:43;;;;;;;16.17;8.70;;;;;;;7.68;55.65;102196.47;690427;28;818;-83
2022/04/28 00:25:04;;;;;;;15.82;8.60;;;;;;;7.67;55.43;102197.28;693064;28;1394;-83
2022/04/28 00:25:43;;;;;;;15.45;8.57;;;;;;;7.56;55.79;102174.94;688515;28;1242;-83
2022/04/28 00:26:03;;;;;;;14.00;8.50;;;;;;;7.58;55.61;102191.53;692727;28;1283;-83
2022/04/28 00:26:24;;;;;;;12.77;8.57;;;;;;;7.57;55.36;102189.72;690266;28;1086;-83
2022/04/28 00:26:45;;;;;;;15.40;8.50;;;;;;;7.55;55.62;102167.94;690465;28;1150;-82
2022/04/28 00:27:05;;;;;;;14.43;8.48;;;;;;;7.57;55.85;102187.13;688434;28;1709;-82
2022/04/28 00:27:26;;;;;;;14.70;8.43;;;;;;;7.54;55.57;102181.72;685089;28;855;-82
2022/04/28 00:27:47;;;;;;;13.00;8.10;;;;;;;7.61;55.73;102190.81;690943;28;1169;-83
2022/04/28 00:28:07;;;;;;;14.23;7.97;;;;;;;7.56;56.08;102174.03;695819;28;1035;-83
2022/04/28 00:28:28;;;;;;;15.27;8.40;;;;;;;7.58;55.77;102186.31;693301;28;1106;-81
2022/04/28 00:28:48;;;;;;;15.50;9.00;;;;;;;7.54;55.79;102172.25;690224;28;1071;-83
2022/04/28 00:29:09;;;;;;;14.32;8.75;;;;;;;7.56;55.36;102189.63;690405;28;1274;-83
2022/04/28 00:29:45;;;;;;;12.83;8.20;;;;;;;7.55;55.99;102183.50;692897;28;736;-83
2022/04/28 00:30:07;;;;;;;14.13;8.20;;;;;;;7.60;55.45;102187.31;687534;28;1137;-83
2022/04/28 00:30:28;;;;;;;16.80;8.20;;;;;;;7.55;55.79;102183.50;687411;28;1369;-83
2022/04/28 00:30:48;;;;;;;18.47;8.20;;;;;;;7.57;55.59;102187.13;690782;28;1174;-83
2022/04/28 00:31:09;;;;;;;16.92;8.50;;;;;;;7.58;55.58;102183.72;687683;28;1307;-82
2022/04/28 00:31:29;;;;;;;14.43;8.90;;;;;;;7.53;55.80;102183.44;685122;28;775;-83
2022/04/28 00:31:50;;;;;;;13.10;9.17;;;;;;;7.55;55.36;102178.31;691043;28;1102;-83
2022/04/28 00:32:10;;;;;;;13.13;9.10;;;;;;;7.53;55.83;102182.53;690545;28;940;-83
2022/04/28 00:32:31;;;;;;;16.60;9.60;;;;;;;7.53;55.57;102185.13;690542;28;1157;-83
2022/04/28 00:33:03;;;;;;;19.10;9.80;;;;;;;7.57;55.95;102192.31;688585;28;1376;-84
2022/04/28 00:33:23;;;;;;;18.55;9.50;;;;;;;7.50;55.63;102175.44;692243;28;1500;-83
2022/04/28 00:33:45;;;;;;;16.63;9.05;;;;;;;7.58;55.97;102191.53;689935;28;1160;-83
2022/04/28 00:34:05;;;;;;;14.90;8.43;;;;;;;7.58;55.65;102196.72;684676;28;1675;-83
2022/04/28 00:34:26;;;;;;;14.65;8.27;;;;;;;7.50;55.78;102175.44;690380;28;1339;-83
2022/04/28 00:34:56;;;;;;;14.70;8.80;;;;;;;7.55;55.91;102180.91;693175;28;1221;-83
2022/04/28 00:35:16;;;;;;;15.40;9.20;;;;;;;7.49;55.99;102180.56;692299;28;1875;-83
2022/04/28 00:35:38;;;;;;;14.82;9.10;;;;;;;7.48;55.87;102177.03;686162;28;1703;-82
2022/04/28 00:35:59;;;;;;;13.55;9.13;;;;;;;7.52;56.01;102170.34;689568;28;1190;-82
2022/04/28 00:36:19;;;;;;;11.83;9.00;;;;;;;7.48;56.09;102168.34;692611;28;1205;-83
2022/04/28 00:36:40;;;;;;;10.65;8.32;;;;;;;7.46;55.71;102168.25;690491;28;729;-83
2022/04/28 00:37:01;;;;;;;11.05;8.10;;;;;;;7.54;55.83;102182.63;689207;28;1520;-83
2022/04/28 00:37:22;;;;;;;12.82;8.50;;;;;;;7.57;56.08;102188.81;693087;28;1183;-83
2022/04/28 00:37:43;;;;;;;14.90;8.65;;;;;;;7.54;55.92;102186.91;695794;28;1190;-83
2022/04/28 00:38:05;;;;;;;14.80;8.88;;;;;;;7.53;56.08;102187.72;690218;28;1214;-83
2022/04/28 00:38:26;;;;;;;14.75;8.50;;;;;;;7.47;55.51;102183.03;685694;28;739;-83
2022/04/28 00:38:46;;;;;;;14.63;8.80;;;;;;;7.46;56.10;102172.53;688006;28;1158;-82
2022/04/28 00:39:07;;;;;;;16.07;8.70;;;;;;;7.46;55.83;102176.06;691569;28;1792;-82
2022/04/28 00:39:43;;;;;;;15.43;8.63;;;;;;;7.50;56.15;102184.94;687419;28;1212;-83
2022/04/28 00:40:05;;;;;;;14.65;8.50;;;;;;;7.50;56.37;102184.94;686268;28;1629;-85
2022/04/28 00:40:26;;;;;;;14.27;8.98;;;;;;;7.45;55.86;102176.84;685733;28;1710;-85
2022/04/28 00:40:46;;;;;;;17.07;9.20;;;;;;;7.46;56.27;102177.75;688139;28;1957;-85
2022/04/28 00:41:08;;;;;;;16.65;8.82;;;;;;;7.52;55.95;102192.03;687574;28;1184;-85
2022/04/28 00:41:28;;;;;;;15.48;8.43;;;;;;;7.45;56.16;102181.16;692333;28;1401;-85
2022/04/28 00:41:49;;;;;;;13.07;8.20;;;;;;;7.49;56.25;102185.75;688205;28;1158;-84
2022/04/28 00:42:12;;;;;;;13.50;8.10;;;;;;;7.38;56.24;102170.34;690690;28;1796;-85
2022/04/28 00:42:33;;;;;;;14.38;8.43;;;;;;;7.40;56.12;102176.56;690381;28;842;-85
2022/04/28 00:43:18;;;;;;;13.73;8.57;;;;;;;7.42;56.54;102183.56;688801;28;1237;-85
2022/04/28 00:43:50;;;;;;;16.08;8.60;;;;;;;7.47;56.06;102195.13;687504;28;1128;-84
2022/04/28 00:44:12;;;;;;;15.40;8.85;;;;;;;7.38;56.13;102170.34;687731;28;1043;-85
2022/04/28 00:44:32;;;;;;;14.55;9.07;;;;;;;7.42;56.45;102181.84;687471;28;1575;-85
2022/04/28 00:44:54;;;;;;;13.80;8.70;;;;;;;7.34;56.38;102172.66;692380;28;1089;-85
2022/04/28 00:45:14;;;;;;;15.80;9.07;;;;;;;7.38;56.52;102185.94;695426;28;1804;-85
2022/04/28 00:45:35;;;;;;;14.63;8.70;;;;;;;7.34;56.47;102175.25;690264;28;1080;-84
2022/04/28 00:45:56;;;;;;;14.95;8.52;;;;;;;7.34;56.77;102183.06;691747;28;1338;-84
2022/04/28 00:46:21;;;;;;;14.95;8.55;;;;;;;7.38;56.51;102191.13;693233;28;1320;-85
2022/04/28 00:46:43;;;;;;;15.18;8.93;;;;;;;7.31;56.73;102175.97;695887;28;1370;-85
2022/04/28 00:47:04;;;;;;;13.55;9.07;;;;;;;7.31;56.63;102175.06;691405;28;1715;-85
2022/04/28 00:50:38;;;;;;;13.30;8.40;;;;;;;7.35;56.67;102184.84;693221;28;1125;-84
2022/04/28 00:51:20;;;;;;;15.18;9.05;;;;;;;7.36;56.62;102195.34;696139;28;1125;-84
2022/04/28 00:51:41;;;;;;;15.40;9.23;;;;;;;7.36;56.54;102191.84;690353;28;1061;-85
2022/04/28 00:52:02;;;;;;;16.50;9.10;;;;;;;7.30;56.63;102181.94;692352;28;1217;-85
2022/04/28 00:52:24;;;;;;;14.07;8.75;;;;;;;7.32;56.50;102184.66;690428;28;1335;-84
2022/04/28 00:52:45;;;;;;;14.13;8.70;;;;;;;7.26;56.53;102185.16;693196;28;1258;-84
2022/04/28 00:53:13;;;;;;;13.45;8.88;;;;;;;7.27;56.97;102181.78;693087;28;1012;-84
2022/04/28 00:53:44;;;;;;;14.40;8.93;;;;;;;7.22;56.51;102173.69;694744;28;1311;-85
2022/04/28 00:54:04;;;;;;;14.25;9.05;;;;;;;7.21;56.80;102176.19;694261;28;1681;-85
2022/04/28 00:54:28;;;;;;;13.57;8.73;;;;;;;7.23;56.42;102183.28;690867;28;1054;-86
2022/04/28 00:54:51;;;;;;;12.88;8.50;;;;;;;7.23;56.89;102184.94;693032;28;1242;-85
2022/04/28 00:55:12;;;;;;;12.85;8.63;;;;;;;7.23;57.07;102185.88;684890;28;1309;-85
2022/04/28 00:55:33;;;;;;;12.90;8.45;;;;;;;7.30;56.64;102187.16;690269;28;1183;-84
2022/04/28 00:55:54;;;;;;;13.27;8.70;;;;;;;7.29;57.10;102194.88;694387;28;1161;-85
2022/04/28 00:56:15;;;;;;;13.70;8.60;;;;;;;7.21;56.95;102182.28;695941;28;1117;-84
2022/04/28 00:56:36;;;;;;;13.32;8.43;;;;;;;7.21;57.18;102181.38;693167;28;1156;-85
2022/04/28 00:56:58;;;;;;;14.70;8.70;;;;;;;7.15;57.21;102176.69;691932;28;1134;-84
2022/04/28 00:57:19;;;;;;;13.27;8.50;;;;;;;7.26;57.14;102190.38;690384;28;1370;-85
2022/04/28 00:57:39;;;;;;;12.60;8.68;;;;;;;7.28;57.03;102196.53;693219;28;1345;-84
2022/04/28 00:58:06;;;;;;;12.15;8.50;;;;;;;7.26;56.69;102193.84;693767;28;1392;-85
2022/04/28 00:58:27;;;;;;;14.15;8.80;;;;;;;7.13;57.26;102171.38;690389;28;941;-84
2022/04/28 00:58:49;;;;;;;14.57;8.77;;;;;;;7.26;57.20;102200.75;688428;28;1245;-84
2022/04/28 00:59:11;;;;;;;13.10;8.45;;;;;;;7.13;56.80;102173.97;690498;28;944;-84
2022/04/28 00:59:31;;;;;;;13.05;8.38;;;;;;;7.19;56.90;102182.97;692677;28;1223;-84
2022/04/28 00:59:52;;;;;;;14.48;8.55;;;;;;;7.20;57.16;102187.38;691153;28;1141;-85
2022/04/28 01:00:13;;;;;;;15.63;8.68;;;;;;;7.10;57.08;102166.00;687525;28;1218;-85
2022/04/28 01:00:34;;;;;;;16.15;9.00;;;;;;;7.15;56.94;102189.66;685030;28;1104;-85
2022/04/28 01:00:56;;;;;;;16.60;9.18;;;;;;;7.13;56.95;102181.75;689770;28;1995;-84
2022/04/28 01:01:16;;;;;;;17.40;9.38;;;;;;;7.11;57.15;102177.25;684870;28;1285;-84
2022/04/28 01:01:38;;;;;;;16.15;9.23;;;;;;;7.20;56.94;102189.97;690698;28;1215;-85
2022/04/28 01:01:58;;;;;;;14.27;9.05;;;;;;;7.18;57.05;102191.56;688371;28;1354;-84
2022/04/28 01:02:19;;;;;;;13.35;8.52;;;;;;;7.07;57.06;102170.97;690080;28;1196;-85
2022/04/28 01:02:40;;;;;;;15.55;8.73;;;;;;;7.14;57.28;102187.88;686667;28;1356;-85
2022/04/28 01:03:01;;;;;;;16.93;9.23;;;;;;;7.09;57.19;102177.19;695289;28;1266;-85
2022/04/28 01:03:22;;;;;;;17.67;9.97;;;;;;;7.12;57.28;102177.38;694695;28;1139;-85
2022/04/28 01:03:46;;;;;;;16.15;9.65;;;;;;;7.12;57.37;102177.38;701515;28;794;-85
2022/04/28 01:04:07;;;;;;;16.08;9.32;;;;;;;7.08;56.99;102175.41;694388;28;1606;-84
2022/04/28 01:04:27;;;;;;;15.35;9.02;;;;;;;7.08;57.09;102172.81;687801;28;1224;-84
2022/04/28 01:04:48;;;;;;;19.27;9.33;;;;;;;7.17;57.09;102189.78;688226;28;1171;-84
2022/04/28 01:05:10;;;;;;;19.10;9.60;;;;;;;7.14;57.37;102187.88;692934;28;1701;-85
2022/04/28 01:05:32;;;;;;;20.60;9.85;;;;;;;7.18;57.34;102186.38;690451;28;1277;-85
2022/04/28 01:05:52;;;;;;;16.88;9.30;;;;;;;7.09;57.17;102178.88;691774;28;978;-85
2022/04/28 01:06:13;;;;;;;18.33;9.30;;;;;;;7.16;57.37;102190.53;690249;28;1187;-84
2022/04/28 01:06:34;;;;;;;15.20;8.95;;;;;;;7.09;57.63;102184.06;687620;28;1121;-84
2022/04/28 01:06:55;;;;;;;13.80;8.90;;;;;;;7.15;57.18;102197.47;688963;28;1205;-85
2022/04/28 01:07:17;;;;;;;12.98;8.70;;;;;;;7.06;57.27;102176.97;690398;28;1342;-84
2022/04/28 01:07:37;;;;;;;14.02;8.52;;;;;;;7.16;57.47;102198.34;693850;28;1382;-85
2022/04/28 01:07:58;;;;;;;16.60;9.13;;;;;;;7.07;57.60;102176.16;694871;28;1184;-85
2022/04/28 01:08:19;;;;;;;18.40;8.90;;;;;;;7.15;57.28;102196.53;692998;28;1297;-84
2022/04/28 01:08:40;;;;;;;16.73;8.70;;;;;;;7.16;57.33;102195.75;690436;28;736;-84
2022/04/28 01:09:02;;;;;;;15.30;8.40;;;;;;;7.12;57.61;102189.44;693427;28;1074;-84
2022/04/28 01:09:22;;;;;;;13.07;8.80;;;;;;;7.05;57.39;102185.56;690505;28;1702;-84
2022/04/28 01:09:43;;;;;;;14.17;8.93;;;;;;;7.06;57.67;102187.34;687277;28;771;-84
2022/04/28 01:10:08;;;;;;;13.30;8.80;;;;;;;7.08;57.46;102190.06;689402;28;1673;-84
2022/04/28 01:10:29;;;;;;;13.80;8.80;;;;;;;7.02;57.50;102177.59;690413;28;956;-85
2022/04/28 01:10:53;;;;;;;14.30;9.07;;;;;;;7.09;57.75;102192.78;695245;28;1219;-85
2022/04/28 01:11:16;;;;;;;14.98;9.10;;;;;;;7.02;57.58;102190.56;690285;28;1063;-84
2022/04/28 01:11:44;;;;;;;14.60;9.30;;;;;;;7.03;57.62;102189.75;695812;28;892;-84
2022/04/28 01:12:15;;;;;;;15.68;9.80;;;;;;;7.07;57.54;102204.72;690761;28;1296;-84
2022/04/28 01:12:38;;;;;;;14.95;9.30;;;;;;;7.04;57.55;102201.03;687521;28;1360;-85
2022/04/28 01:12:59;;;;;;;14.30;9.25;;;;;;;6.97;57.74;102186.75;692158;28;1519;-84
2022/04/28 01:13:20;;;;;;;15.50;9.23;;;;;;;6.97;57.44;102182.47;690441;28;1179;-84
2022/04/28 01:13:47;;;;;;;16.70;9.55;;;;;;;7.01;57.36;102187.84;689295;28;1549;-84
2022/04/28 01:14:14;;;;;;;14.82;9.25;;;;;;;7.01;57.44;102187.84;690369;28;961;-85
2022/04/28 01:14:42;;;;;;;13.82;8.68;;;;;;;7.01;57.91;102193.97;693017;28;1299;-85
2022/04/28 01:15:05;;;;;;;13.13;8.40;;;;;;;6.99;57.97;102200.72;693315;28;1526;-84
2022/04/28 01:15:26;;;;;;;14.02;8.70;;;;;;;7.03;57.90;102202.75;690251;28;1338;-83
2022/04/28 01:15:49;;;;;;;14.30;8.98;;;;;;;6.92;57.94;102177.75;693389;28;1142;-84
2022/04/28 01:16:11;;;;;;;14.00;8.98;;;;;;;6.92;58.13;102189.06;691997;28;1602;-85
2022/04/28 01:16:32;;;;;;;13.65;8.90;;;;;;;7.00;57.73;102207.72;694926;28;1563;-85
2022/04/28 01:16:53;;;;;;;15.30;9.02;;;;;;;6.92;57.82;102190.75;689979;28;1250;-85
2022/04/28 01:17:15;;;;;;;16.60;9.40;;;;;;;6.95;58.19;102189.25;687596;28;1267;-85
2022/04/28 01:17:40;;;;;;;15.05;9.23;;;;;;;6.91;57.45;102192.44;687695;28;1162;-84
2022/04/28 01:18:01;;;;;;;11.55;8.60;;;;;;;6.93;57.93;102189.97;688539;28;1568;-84
2022/04/28 01:18:22;;;;;;;12.37;8.63;;;;;;;6.91;58.15;102189.84;687699;28;881;-84
2022/04/28 01:18:43;;;;;;;12.60;8.80;;;;;;;6.98;57.97;102204.13;693049;28;1099;-85
2022/04/28 01:19:03;;;;;;;14.13;9.50;;;;;;;6.99;57.80;102201.66;692730;28;1622;-85
2022/04/28 01:19:25;;;;;;;12.95;9.18;;;;;;;6.99;57.71;102205.91;690355;28;1041;-83
2022/04/28 01:19:46;;;;;;;13.95;9.20;;;;;;;7.01;57.80;102212.13;687479;28;1123;-84
2022/04/28 01:20:07;;;;;;;16.17;9.37;;;;;;;7.00;58.16;102202.53;686490;28;1846;-84
2022/04/28 01:20:30;;;;;;;17.85;9.82;;;;;;;6.94;58.51;102197.84;689806;28;820;-85
2022/04/28 01:20:51;;;;;;;17.05;9.60;;;;;;;7.01;57.87;102203.44;693763;28;1902;-85
2022/04/28 01:21:12;;;;;;;14.10;9.52;;;;;;;6.91;58.03;102192.44;690141;28;1453;-84
2022/04/28 01:21:33;;;;;;;14.07;9.30;;;;;;;6.98;57.79;102209.31;687567;28;1258;-85
2022/04/28 01:22:05;;;;;;;22.52;9.35;;;;;;;6.97;58.05;102207.53;684839;28;1155;-83
2022/04/28 01:22:26;;;;;;;22.77;9.52;;;;;;;6.95;58.09;102202.22;687671;28;803;-84
2022/04/28 01:22:47;;;;;;;16.20;9.23;;;;;;;6.89;58.21;102195.75;687526;28;1481;-85
2022/04/28 01:23:10;;;;;;;16.90;9.00;;;;;;;6.93;57.96;102200.34;695819;28;1197;-84
2022/04/28 01:23:33;;;;;;;15.30;8.60;;;;;;;6.91;58.13;102199.31;693079;28;1236;-84
2022/04/28 01:23:55;;;;;;;12.98;8.77;;;;;;;6.87;58.26;102202.53;692929;28;1231;-84
2022/04/28 01:24:17;;;;;;;12.85;8.88;;;;;;;6.82;58.21;102191.84;690341;28;1093;-84
2022/04/28 01:24:37;;;;;;;12.05;8.80;;;;;;;6.85;58.52;102194.63;684982;28;1368;-84
2022/04/28 01:25:07;;;;;;;14.38;8.98;;;;;;;6.89;57.96;102212.22;686772;28;1147;-85
2022/04/28 01:25:28;;;;;;;17.42;9.50;;;;;;;6.90;58.39;102210.50;684859;28;883;-84
2022/04/28 01:25:49;;;;;;;16.77;9.32;;;;;;;6.81;58.33;102198.72;688045;28;1272;-84
2022/04/28 01:26:11;;;;;;;18.70;9.60;;;;;;;6.78;58.52;102198.53;690424;28;979;-85
2022/04/28 01:26:33;;;;;;;15.55;9.30;;;;;;;6.88;58.14;102210.41;685043;28;1331;-84
2022/04/28 01:26:56;;;;;;;14.77;8.90;;;;;;;6.75;58.10;102189.66;687453;28;1110;-84
2022/04/28 01:27:19;;;;;;;15.30;9.48;;;;;;;6.75;58.27;102195.72;684930;28;966;-84
2022/04/28 01:27:39;;;;;;;14.65;9.50;;;;;;;6.77;58.34;102198.41;684975;28;1289;-84
2022/04/28 01:28:00;;;;;;;16.60;10.37;;;;;;;6.72;58.33;102192.94;684908;28;1185;-85
2022/04/28 01:28:31;;;;;;;15.98;10.13;;;;;;;6.71;58.72;102194.59;687676;28;1150;-84
2022/04/28 01:28:52;;;;;;;16.60;10.27;;;;;;;6.73;58.13;102199.91;684240;28;1194;-84
2022/04/28 01:29:13;;;;;;;16.27;9.60;;;;;;;6.79;58.59;102213.31;684722;28;1279;-84
2022/04/28 01:29:34;;;;;;;16.55;9.73;;;;;;;6.77;58.69;102206.19;689711;28;1050;-85
2022/04/28 01:29:55;;;;;;;15.16;9.48;;;;;;;6.73;58.14;102202.50;688443;28;1369;-85
2022/04/28 01:30:16;;;;;;;15.80;9.70;;;;;;;6.68;58.49;102194.38;687355;28;1145;-84
2022/04/28 01:30:49;;;;;;;16.00;9.57;;;;;;;6.79;58.65;102218.50;687543;28;1092;-84
2022/04/28 01:31:10;;;;;;;16.20;9.48;;;;;;;6.77;58.56;102209.72;684729;28;1704;-84
2022/04/28 01:31:38;;;;;;;15.98;8.95;;;;;;;6.70;58.38;102194.50;687707;28;898;-84
2022/04/28 01:32:02;;;;;;;16.60;9.43;;;;;;;6.78;58.87;102214.09;690039;28;1460;-84
2022/04/28 01:32:23;;;;;;;16.08;9.20;;;;;;;6.68;58.47;102193.47;695838;28;1195;-84
2022/04/28 01:32:44;;;;;;;13.10;8.73;;;;;;;6.69;58.39;102195.28;695867;28;814;-84
2022/04/28 01:33:05;;;;;;;13.52;8.93;;;;;;;6.73;58.17;102209.41;690237;28;1689;-86
2022/04/28 01:33:26;;;;;;;14.90;9.33;;;;;;;6.65;58.43;102198.47;688190;28;1171;-84
2022/04/28 01:33:47;;;;;;;17.75;10.20;;;;;;;6.65;58.71;102196.78;687910;28;1195;-85
2022/04/28 01:34:11;;;;;;;18.40;10.35;;;;;;;6.67;58.53;102197.78;686678;28;1256;-84
2022/04/28 01:34:32;;;;;;;18.08;10.10;;;;;;;6.66;58.54;102208.03;693088;28;1130;-84
2022/04/28 01:34:53;;;;;;;15.18;9.40;;;;;;;6.66;58.30;102208.03;692759;28;1728;-84
2022/04/28 01:35:14;;;;;;;14.90;9.23;;;;;;;6.68;58.89;102211.63;692287;28;1120;-85
2022/04/28 01:35:34;;;;;;;15.77;8.88;;;;;;;6.70;58.64;102217.84;695691;28;1656;-84
2022/04/28 01:35:56;;;;;;;15.63;8.95;;;;;;;6.60;58.90;102199.84;693319;28;1190;-84
2022/04/28 01:36:17;;;;;;;15.05;8.63;;;;;;;6.59;58.49;102201.56;692968;28;1284;-84
2022/04/28 01:36:38;;;;;;;13.32;8.48;;;;;;;6.66;58.51;102218.41;690595;28;1271;-84
2022/04/28 01:36:58;;;;;;;13.57;8.40;;;;;;;6.55;58.88;102205.63;690141;28;1564;-84
2022/04/28 01:37:19;;;;;;;14.63;8.82;;;;;;;6.63;58.60;102207.84;689392;28;1770;-84
2022/04/28 01:37:40;;;;;;;16.15;9.48;;;;;;;6.57;58.82;102201.44;693036;28;1281;-84
2022/04/28 01:38:06;;;;;;;16.40;10.30;;;;;;;6.64;59.03;102207.94;690239;28;1013;-84
2022/04/28 01:38:27;;;;;;;15.57;10.15;;;;;;;6.56;58.59;102196.13;684881;28;1195;-84
2022/04/28 01:38:47;;;;;;;17.75;10.20;;;;;;;6.62;58.60;102200.88;687703;28;1100;-84
2022/04/28 01:39:09;;;;;;;18.63;10.05;;;;;;;6.66;58.46;102208.03;685055;28;896;-85
2022/04/28 01:39:31;;;;;;;18.08;9.75;;;;;;;6.57;59.01;102196.25;687368;28;966;-84
2022/04/28 01:39:53;;;;;;;14.82;9.50;;;;;;;6.55;58.88;102196.94;685581;28;1206;-84
2022/04/28 01:40:16;;;;;;;13.35;9.50;;;;;;;6.61;58.86;102206.81;684892;28;1127;-84
2022/04/28 01:40:37;;;;;;;13.98;9.38;;;;;;;6.67;58.69;102217.63;684927;28;1276;-84
2022/04/28 01:40:57;;;;;;;14.95;8.63;;;;;;;6.67;58.67;102218.53;687456;28;1931;-84
2022/04/28 01:41:18;;;;;;;15.48;8.60;;;;;;;6.65;58.88;102211.44;687635;28;965;-85
2022/04/28 01:41:38;;;;;;;16.87;8.90;;;;;;;6.66;58.87;102218.41;690441;28;1233;-84
2022/04/28 01:42:00;;;;;;;16.58;9.40;;;;;;;6.63;58.94;102211.31;694948;28;1273;-84
2022/04/28 01:42:20;;;;;;;16.37;9.60;;;;;;;6.60;59.25;102200.75;691858;28;1071;-84
2022/04/28 01:42:42;;;;;;;13.90;9.20;;;;;;;6.67;59.07;102217.63;685086;28;1174;-84
2022/04/28 01:43:03;;;;;;;13.60;9.00;;;;;;;6.60;59.09;102205.03;684762;28;1113;-84
2022/04/28 01:43:25;;;;;;;15.30;9.20;;;;;;;6.57;58.83;102198.84;684999;28;837;-85
2022/04/28 01:43:45;;;;;;;17.00;9.57;;;;;;;6.56;59.17;102194.47;687429;28;1247;-84
2022/04/28 01:44:08;;;;;;;18.33;9.52;;;;;;;6.58;58.83;102207.53;689328;28;1813;-84
2022/04/28 01:44:28;;;;;;;16.50;9.38;;;;;;;6.66;59.06;102215.81;690431;28;815;-84
2022/04/28 01:44:50;;;;;;;15.57;9.50;;;;;;;6.55;58.98;102200.44;687407;28;1199;-84
2022/04/28 01:45:11;;;;;;;16.00;9.70;;;;;;;6.57;59.02;102209.22;684635;28;1281;-84
2022/04/28 01:45:46;;;;;;;16.33;9.65;;;;;;;6.58;58.94;102208.41;687251;28;1441;-84
2022/04/28 01:46:18;;;;;;;16.15;9.82;;;;;;;6.61;59.18;102217.19;687546;28;1454;-84
2022/04/28 01:46:50;;;;;;;16.23;9.63;;;;;;;6.51;59.08;102200.13;690820;28;1312;-84
2022/04/28 01:47:24;;;;;;;15.18;9.20;;;;;;;6.53;59.13;102209.81;690389;28;1394;-84
2022/04/28 01:48:03;;;;;;;14.18;9.55;;;;;;;6.53;59.63;102208.91;693067;28;1409;-84
2022/04/28 01:48:42;;;;;;;15.95;9.65;;;;;;;6.52;59.35;102212.31;690348;28;2140;-84
2022/04/28 01:49:22;;;;;;;15.60;9.10;;;;;;;6.56;59.19;102214.28;689947;28;1200;-84
2022/04/28 01:50:06;;;;;;;12.77;8.85;;;;;;;6.52;59.44;102208.00;692752;28;1559;-85
2022/04/28 01:54:57;;;;;;;13.52;8.95;;;;;;;6.62;59.26;102221.63;690257;28;1103;-84